sensor_id;sensor_type;location;lat;lon;timestamp;P1;durP1;ratioP1;P2;durP2;ratioP2
12715;SDS011;6422;49.938;9.124;2022-08-19T00:01:07;24.00;;;9.13;;
12715;SDS011;6422;49.938;9.124;2022-08-19T00:03:32;22.70;;;8.20;;
12715;SDS011;6422;49.938;9.124;2022-08-19T00:05:57;28.03;;;8.17;;
12715;SDS011;6422;49.938;9.124;2022-08-19T00:08:22;20.85;;;7.43;;
12715;SDS011;6422;49.938;9.124;2022-08-19T00:10:48;28.67;;;8.40;;
12715;SDS011;6422;49.938;9.124;2022-08-19T00:13:13;24.80;;;9.70;;
12715;SDS011;6422;49.938;9.124;2022-08-19T00:15:39;25.13;;;8.07;;
12715;SDS011;6422;49.938;9.124;2022-08-19T00:18:04;26.80;;;8.77;;
12715;SDS011;6422;49.938;9.124;2022-08-19T00:20:29;23.60;;;9.33;;
12715;SDS011;6422;49.938;9.124;2022-08-19T00:22:54;26.97;;;9.73;;
12715;SDS011;6422;49.938;9.124;2022-08-19T00:25:20;25.90;;;9.87;;
12715;SDS011;6422;49.938;9.124;2022-08-19T00:27:45;21.90;;;7.72;;
12715;SDS011;6422;49.938;9.124;2022-08-19T00:30:11;29.50;;;8.13;;
12715;SDS011;6422;49.938;9.124;2022-08-19T00:32:37;21.37;;;7.27;;
12715;SDS011;6422;49.938;9.124;2022-08-19T00:35:02;25.50;;;8.10;;
12715;SDS011;6422;49.938;9.124;2022-08-19T00:37:27;67.97;;;8.10;;
12715;SDS011;6422;49.938;9.124;2022-08-19T00:39:53;21.17;;;8.33;;
12715;SDS011;6422;49.938;9.124;2022-08-19T00:42:19;23.03;;;8.13;;
12715;SDS011;6422;49.938;9.124;2022-08-19T00:44:44;21.20;;;8.60;;
12715;SDS011;6422;49.938;9.124;2022-08-19T00:47:10;21.90;;;8.20;;
12715;SDS011;6422;49.938;9.124;2022-08-19T00:49:37;24.23;;;8.30;;
12715;SDS011;6422;49.938;9.124;2022-08-19T00:52:12;24.80;;;8.20;;
12715;SDS011;6422;49.938;9.124;2022-08-19T00:54:39;35.93;;;9.07;;
12715;SDS011;6422;49.938;9.124;2022-08-19T00:57:05;21.10;;;7.00;;
12715;SDS011;6422;49.938;9.124;2022-08-19T00:59:31;26.47;;;8.60;;
12715;SDS011;6422;49.938;9.124;2022-08-19T01:01:56;22.23;;;7.57;;
12715;SDS011;6422;49.938;9.124;2022-08-19T01:04:22;26.40;;;9.30;;
12715;SDS011;6422;49.938;9.124;2022-08-19T01:06:47;24.07;;;8.23;;
12715;SDS011;6422;49.938;9.124;2022-08-19T01:09:12;24.67;;;8.87;;
12715;SDS011;6422;49.938;9.124;2022-08-19T01:11:39;24.47;;;8.70;;
12715;SDS011;6422;49.938;9.124;2022-08-19T01:14:05;24.57;;;9.43;;
12715;SDS011;6422;49.938;9.124;2022-08-19T01:16:30;27.90;;;9.53;;
12715;SDS011;6422;49.938;9.124;2022-08-19T01:18:57;26.10;;;9.77;;
12715;SDS011;6422;49.938;9.124;2022-08-19T01:21:36;26.33;;;8.50;;
12715;SDS011;6422;49.938;9.124;2022-08-19T01:24:03;24.97;;;8.23;;
12715;SDS011;6422;49.938;9.124;2022-08-19T01:26:28;23.77;;;8.70;;
12715;SDS011;6422;49.938;9.124;2022-08-19T01:28:55;23.13;;;7.80;;
12715;SDS011;6422;49.938;9.124;2022-08-19T01:31:25;27.50;;;9.30;;
12715;SDS011;6422;49.938;9.124;2022-08-19T01:33:51;27.47;;;8.90;;
12715;SDS011;6422;49.938;9.124;2022-08-19T01:36:39;23.77;;;9.67;;
12715;SDS011;6422;49.938;9.124;2022-08-19T01:39:04;22.83;;;8.37;;
12715;SDS011;6422;49.938;9.124;2022-08-19T01:41:30;28.27;;;8.50;;
12715;SDS011;6422;49.938;9.124;2022-08-19T01:43:55;22.97;;;8.77;;
12715;SDS011;6422;49.938;9.124;2022-08-19T01:46:21;38.93;;;9.10;;
12715;SDS011;6422;49.938;9.124;2022-08-19T01:48:46;24.90;;;8.63;;
12715;SDS011;6422;49.938;9.124;2022-08-19T01:51:12;23.90;;;9.60;;
12715;SDS011;6422;49.938;9.124;2022-08-19T01:53:37;32.93;;;9.30;;
12715;SDS011;6422;49.938;9.124;2022-08-19T01:56:03;25.27;;;8.80;;
12715;SDS011;6422;49.938;9.124;2022-08-19T01:58:29;27.10;;;8.87;;
12715;SDS011;6422;49.938;9.124;2022-08-19T02:00:57;28.30;;;9.93;;
12715;SDS011;6422;49.938;9.124;2022-08-19T02:03:22;23.43;;;8.73;;
12715;SDS011;6422;49.938;9.124;2022-08-19T02:05:52;23.03;;;8.70;;
12715;SDS011;6422;49.938;9.124;2022-08-19T02:08:18;22.07;;;8.10;;
12715;SDS011;6422;49.938;9.124;2022-08-19T02:10:43;23.40;;;9.33;;
12715;SDS011;6422;49.938;9.124;2022-08-19T02:13:09;23.77;;;9.27;;
12715;SDS011;6422;49.938;9.124;2022-08-19T02:15:34;24.43;;;8.00;;
12715;SDS011;6422;49.938;9.124;2022-08-19T02:18:00;27.00;;;9.43;;
12715;SDS011;6422;49.938;9.124;2022-08-19T02:20:25;32.90;;;11.00;;
12715;SDS011;6422;49.938;9.124;2022-08-19T02:22:50;24.53;;;7.90;;
12715;SDS011;6422;49.938;9.124;2022-08-19T02:25:15;28.87;;;8.83;;
12715;SDS011;6422;49.938;9.124;2022-08-19T02:27:40;22.60;;;8.60;;
12715;SDS011;6422;49.938;9.124;2022-08-19T02:30:07;24.93;;;8.80;;
12715;SDS011;6422;49.938;9.124;2022-08-19T02:32:32;30.30;;;8.80;;
12715;SDS011;6422;49.938;9.124;2022-08-19T02:34:58;27.03;;;9.83;;
12715;SDS011;6422;49.938;9.124;2022-08-19T02:37:23;24.50;;;9.37;;
12715;SDS011;6422;49.938;9.124;2022-08-19T02:40:18;22.23;;;7.97;;
12715;SDS011;6422;49.938;9.124;2022-08-19T02:42:43;22.93;;;8.50;;
12715;SDS011;6422;49.938;9.124;2022-08-19T02:45:10;22.30;;;8.83;;
12715;SDS011;6422;49.938;9.124;2022-08-19T02:47:35;24.03;;;7.73;;
12715;SDS011;6422;49.938;9.124;2022-08-19T02:50:00;24.53;;;9.20;;
12715;SDS011;6422;49.938;9.124;2022-08-19T02:52:26;23.80;;;9.00;;
12715;SDS011;6422;49.938;9.124;2022-08-19T02:54:52;24.63;;;8.60;;
12715;SDS011;6422;49.938;9.124;2022-08-19T02:57:17;23.40;;;8.90;;
12715;SDS011;6422;49.938;9.124;2022-08-19T02:59:42;24.53;;;8.60;;
12715;SDS011;6422;49.938;9.124;2022-08-19T03:02:07;21.40;;;8.07;;
12715;SDS011;6422;49.938;9.124;2022-08-19T03:04:33;22.17;;;8.10;;
12715;SDS011;6422;49.938;9.124;2022-08-19T03:06:58;23.13;;;8.38;;
12715;SDS011;6422;49.938;9.124;2022-08-19T03:09:23;25.63;;;8.23;;
12715;SDS011;6422;49.938;9.124;2022-08-19T03:11:48;21.10;;;7.50;;
12715;SDS011;6422;49.938;9.124;2022-08-19T03:14:13;27.17;;;9.75;;
12715;SDS011;6422;49.938;9.124;2022-08-19T03:16:41;26.73;;;8.90;;
12715;SDS011;6422;49.938;9.124;2022-08-19T03:19:07;27.93;;;8.47;;
12715;SDS011;6422;49.938;9.124;2022-08-19T03:21:33;21.93;;;7.90;;
12715;SDS011;6422;49.938;9.124;2022-08-19T03:23:59;26.13;;;7.40;;
12715;SDS011;6422;49.938;9.124;2022-08-19T03:26:25;24.90;;;8.33;;
12715;SDS011;6422;49.938;9.124;2022-08-19T03:28:50;23.57;;;7.27;;
12715;SDS011;6422;49.938;9.124;2022-08-19T03:31:16;21.73;;;7.00;;
12715;SDS011;6422;49.938;9.124;2022-08-19T03:33:41;21.60;;;7.67;;
12715;SDS011;6422;49.938;9.124;2022-08-19T03:38:33;21.57;;;7.80;;
12715;SDS011;6422;49.938;9.124;2022-08-19T03:41:02;34.93;;;8.23;;
12715;SDS011;6422;49.938;9.124;2022-08-19T03:43:27;23.00;;;7.00;;
12715;SDS011;6422;49.938;9.124;2022-08-19T03:46:03;27.43;;;8.40;;
12715;SDS011;6422;49.938;9.124;2022-08-19T03:48:29;24.03;;;9.00;;
12715;SDS011;6422;49.938;9.124;2022-08-19T03:50:55;21.53;;;8.20;;
12715;SDS011;6422;49.938;9.124;2022-08-19T03:53:20;26.30;;;8.17;;
12715;SDS011;6422;49.938;9.124;2022-08-19T03:55:46;25.93;;;7.90;;
12715;SDS011;6422;49.938;9.124;2022-08-19T03:58:11;24.30;;;8.20;;
12715;SDS011;6422;49.938;9.124;2022-08-19T04:00:36;23.40;;;7.80;;
12715;SDS011;6422;49.938;9.124;2022-08-19T04:03:01;23.83;;;8.67;;
12715;SDS011;6422;49.938;9.124;2022-08-19T04:05:27;26.57;;;9.83;;
12715;SDS011;6422;49.938;9.124;2022-08-19T04:07:53;23.30;;;7.80;;
12715;SDS011;6422;49.938;9.124;2022-08-19T04:10:19;22.60;;;7.40;;
12715;SDS011;6422;49.938;9.124;2022-08-19T04:12:45;23.90;;;8.57;;
12715;SDS011;6422;49.938;9.124;2022-08-19T04:15:11;22.40;;;8.17;;
12715;SDS011;6422;49.938;9.124;2022-08-19T04:17:36;24.23;;;8.90;;
12715;SDS011;6422;49.938;9.124;2022-08-19T04:20:01;24.38;;;8.35;;
12715;SDS011;6422;49.938;9.124;2022-08-19T04:22:26;24.40;;;7.87;;
12715;SDS011;6422;49.938;9.124;2022-08-19T04:24:52;22.07;;;7.50;;
12715;SDS011;6422;49.938;9.124;2022-08-19T04:27:17;28.27;;;8.20;;
12715;SDS011;6422;49.938;9.124;2022-08-19T04:29:42;23.70;;;8.70;;
12715;SDS011;6422;49.938;9.124;2022-08-19T04:32:08;22.57;;;7.57;;
12715;SDS011;6422;49.938;9.124;2022-08-19T04:34:33;23.40;;;8.90;;
12715;SDS011;6422;49.938;9.124;2022-08-19T04:36:58;23.52;;;7.22;;
12715;SDS011;6422;49.938;9.124;2022-08-19T04:39:26;21.47;;;7.93;;
12715;SDS011;6422;49.938;9.124;2022-08-19T04:42:11;22.37;;;7.37;;
12715;SDS011;6422;49.938;9.124;2022-08-19T04:44:56;21.60;;;7.27;;
12715;SDS011;6422;49.938;9.124;2022-08-19T04:47:21;23.03;;;7.60;;
12715;SDS011;6422;49.938;9.124;2022-08-19T04:49:47;21.13;;;6.80;;
12715;SDS011;6422;49.938;9.124;2022-08-19T04:52:13;17.70;;;7.73;;
12715;SDS011;6422;49.938;9.124;2022-08-19T04:54:38;27.77;;;8.40;;
12715;SDS011;6422;49.938;9.124;2022-08-19T04:57:04;19.77;;;8.10;;
12715;SDS011;6422;49.938;9.124;2022-08-19T04:59:31;26.13;;;8.97;;
12715;SDS011;6422;49.938;9.124;2022-08-19T05:01:58;19.63;;;7.40;;
12715;SDS011;6422;49.938;9.124;2022-08-19T05:04:23;23.87;;;9.10;;
12715;SDS011;6422;49.938;9.124;2022-08-19T05:06:49;18.03;;;8.07;;
12715;SDS011;6422;49.938;9.124;2022-08-19T05:09:16;22.13;;;7.93;;
12715;SDS011;6422;49.938;9.124;2022-08-19T05:11:41;21.90;;;6.97;;
12715;SDS011;6422;49.938;9.124;2022-08-19T05:14:07;19.00;;;7.60;;
12715;SDS011;6422;49.938;9.124;2022-08-19T05:16:33;18.17;;;6.67;;
12715;SDS011;6422;49.938;9.124;2022-08-19T05:18:58;23.43;;;8.77;;
12715;SDS011;6422;49.938;9.124;2022-08-19T05:21:42;20.60;;;7.27;;
12715;SDS011;6422;49.938;9.124;2022-08-19T05:24:26;22.63;;;6.87;;
12715;SDS011;6422;49.938;9.124;2022-08-19T05:26:52;22.07;;;8.70;;
12715;SDS011;6422;49.938;9.124;2022-08-19T05:29:18;21.50;;;7.33;;
12715;SDS011;6422;49.938;9.124;2022-08-19T05:31:44;19.37;;;7.77;;
12715;SDS011;6422;49.938;9.124;2022-08-19T05:34:09;20.27;;;7.20;;
12715;SDS011;6422;49.938;9.124;2022-08-19T05:36:36;19.77;;;6.97;;
12715;SDS011;6422;49.938;9.124;2022-08-19T05:39:04;20.20;;;8.70;;
12715;SDS011;6422;49.938;9.124;2022-08-19T05:41:29;24.43;;;7.73;;
12715;SDS011;6422;49.938;9.124;2022-08-19T05:43:58;20.17;;;7.63;;
12715;SDS011;6422;49.938;9.124;2022-08-19T05:46:25;18.50;;;7.07;;
12715;SDS011;6422;49.938;9.124;2022-08-19T05:48:50;20.73;;;7.47;;
12715;SDS011;6422;49.938;9.124;2022-08-19T05:51:16;21.37;;;6.90;;
12715;SDS011;6422;49.938;9.124;2022-08-19T05:53:41;19.57;;;6.10;;
12715;SDS011;6422;49.938;9.124;2022-08-19T05:56:07;20.07;;;7.50;;
12715;SDS011;6422;49.938;9.124;2022-08-19T05:58:33;19.47;;;7.20;;
12715;SDS011;6422;49.938;9.124;2022-08-19T06:00:59;21.83;;;8.00;;
12715;SDS011;6422;49.938;9.124;2022-08-19T06:03:29;17.70;;;6.90;;
12715;SDS011;6422;49.938;9.124;2022-08-19T06:05:54;19.83;;;7.30;;
12715;SDS011;6422;49.938;9.124;2022-08-19T06:08:19;27.50;;;7.20;;
12715;SDS011;6422;49.938;9.124;2022-08-19T06:10:45;18.60;;;6.27;;
12715;SDS011;6422;49.938;9.124;2022-08-19T06:13:10;19.35;;;6.57;;
12715;SDS011;6422;49.938;9.124;2022-08-19T06:15:35;23.97;;;7.37;;
12715;SDS011;6422;49.938;9.124;2022-08-19T06:18:00;28.73;;;6.77;;
12715;SDS011;6422;49.938;9.124;2022-08-19T06:20:26;20.23;;;5.90;;
12715;SDS011;6422;49.938;9.124;2022-08-19T06:22:51;23.83;;;6.73;;
12715;SDS011;6422;49.938;9.124;2022-08-19T06:25:16;19.73;;;6.40;;
12715;SDS011;6422;49.938;9.124;2022-08-19T06:27:42;21.77;;;6.77;;
12715;SDS011;6422;49.938;9.124;2022-08-19T06:30:07;32.73;;;7.70;;
12715;SDS011;6422;49.938;9.124;2022-08-19T06:32:33;21.70;;;6.80;;
12715;SDS011;6422;49.938;9.124;2022-08-19T06:34:58;20.37;;;5.60;;
12715;SDS011;6422;49.938;9.124;2022-08-19T06:37:23;22.27;;;6.40;;
12715;SDS011;6422;49.938;9.124;2022-08-19T06:39:49;24.07;;;6.00;;
12715;SDS011;6422;49.938;9.124;2022-08-19T06:42:14;17.80;;;6.60;;
12715;SDS011;6422;49.938;9.124;2022-08-19T06:44:44;19.77;;;7.40;;
12715;SDS011;6422;49.938;9.124;2022-08-19T06:47:10;23.10;;;6.87;;
12715;SDS011;6422;49.938;9.124;2022-08-19T06:49:36;18.90;;;5.50;;
12715;SDS011;6422;49.938;9.124;2022-08-19T06:52:01;22.30;;;6.77;;
12715;SDS011;6422;49.938;9.124;2022-08-19T06:54:27;26.00;;;7.30;;
12715;SDS011;6422;49.938;9.124;2022-08-19T06:56:54;21.57;;;7.27;;
12715;SDS011;6422;49.938;9.124;2022-08-19T06:59:21;28.53;;;6.53;;
12715;SDS011;6422;49.938;9.124;2022-08-19T07:01:51;21.43;;;6.30;;
12715;SDS011;6422;49.938;9.124;2022-08-19T07:04:17;20.47;;;5.03;;
12715;SDS011;6422;49.938;9.124;2022-08-19T07:06:43;19.93;;;6.37;;
12715;SDS011;6422;49.938;9.124;2022-08-19T07:09:09;18.37;;;5.90;;
12715;SDS011;6422;49.938;9.124;2022-08-19T07:11:35;17.97;;;7.30;;
12715;SDS011;6422;49.938;9.124;2022-08-19T07:14:00;22.83;;;7.80;;
12715;SDS011;6422;49.938;9.124;2022-08-19T07:16:26;20.20;;;6.60;;
12715;SDS011;6422;49.938;9.124;2022-08-19T07:18:52;20.30;;;6.43;;
12715;SDS011;6422;49.938;9.124;2022-08-19T07:21:22;19.40;;;6.00;;
12715;SDS011;6422;49.938;9.124;2022-08-19T07:23:47;23.17;;;6.27;;
12715;SDS011;6422;49.938;9.124;2022-08-19T07:26:19;15.80;;;5.20;;
12715;SDS011;6422;49.938;9.124;2022-08-19T07:28:44;20.17;;;6.90;;
12715;SDS011;6422;49.938;9.124;2022-08-19T07:31:11;25.13;;;7.17;;
12715;SDS011;6422;49.938;9.124;2022-08-19T07:33:37;20.63;;;6.10;;
12715;SDS011;6422;49.938;9.124;2022-08-19T07:36:04;17.37;;;5.07;;
12715;SDS011;6422;49.938;9.124;2022-08-19T07:38:30;17.47;;;6.83;;
12715;SDS011;6422;49.938;9.124;2022-08-19T07:40:55;24.27;;;6.73;;
12715;SDS011;6422;49.938;9.124;2022-08-19T07:43:20;20.63;;;7.90;;
12715;SDS011;6422;49.938;9.124;2022-08-19T07:45:50;21.30;;;7.80;;
12715;SDS011;6422;49.938;9.124;2022-08-19T07:48:16;17.73;;;6.27;;
12715;SDS011;6422;49.938;9.124;2022-08-19T07:50:41;18.50;;;6.10;;
12715;SDS011;6422;49.938;9.124;2022-08-19T07:53:06;18.13;;;5.37;;
12715;SDS011;6422;49.938;9.124;2022-08-19T07:55:31;21.80;;;6.67;;
12715;SDS011;6422;49.938;9.124;2022-08-19T07:57:56;17.27;;;5.20;;
12715;SDS011;6422;49.938;9.124;2022-08-19T08:00:22;17.23;;;5.40;;
12715;SDS011;6422;49.938;9.124;2022-08-19T08:02:47;19.00;;;6.43;;
12715;SDS011;6422;49.938;9.124;2022-08-19T08:05:12;17.97;;;6.13;;
12715;SDS011;6422;49.938;9.124;2022-08-19T08:07:56;17.97;;;5.73;;
12715;SDS011;6422;49.938;9.124;2022-08-19T08:10:54;26.13;;;6.80;;
12715;SDS011;6422;49.938;9.124;2022-08-19T08:13:19;15.90;;;5.60;;
12715;SDS011;6422;49.938;9.124;2022-08-19T08:15:44;19.30;;;6.27;;
12715;SDS011;6422;49.938;9.124;2022-08-19T08:18:10;15.10;;;5.00;;
12715;SDS011;6422;49.938;9.124;2022-08-19T08:20:35;18.40;;;6.50;;
12715;SDS011;6422;49.938;9.124;2022-08-19T08:23:00;22.90;;;7.00;;
12715;SDS011;6422;49.938;9.124;2022-08-19T08:25:44;22.93;;;6.63;;
12715;SDS011;6422;49.938;9.124;2022-08-19T08:28:09;16.98;;;6.65;;
12715;SDS011;6422;49.938;9.124;2022-08-19T08:30:35;23.13;;;5.70;;
12715;SDS011;6422;49.938;9.124;2022-08-19T08:33:01;21.63;;;6.53;;
12715;SDS011;6422;49.938;9.124;2022-08-19T08:35:27;23.33;;;8.30;;
12715;SDS011;6422;49.938;9.124;2022-08-19T08:37:52;18.50;;;6.13;;
12715;SDS011;6422;49.938;9.124;2022-08-19T08:40:21;17.67;;;6.53;;
12715;SDS011;6422;49.938;9.124;2022-08-19T08:42:51;21.17;;;7.10;;
12715;SDS011;6422;49.938;9.124;2022-08-19T08:45:17;20.97;;;7.80;;
12715;SDS011;6422;49.938;9.124;2022-08-19T08:47:43;16.43;;;7.10;;
12715;SDS011;6422;49.938;9.124;2022-08-19T08:50:25;20.20;;;7.23;;
12715;SDS011;6422;49.938;9.124;2022-08-19T08:52:53;16.93;;;7.00;;
12715;SDS011;6422;49.938;9.124;2022-08-19T08:55:22;18.20;;;6.50;;
12715;SDS011;6422;49.938;9.124;2022-08-19T09:00:36;24.10;;;7.70;;
12715;SDS011;6422;49.938;9.124;2022-08-19T09:02:59;17.93;;;7.17;;
12715;SDS011;6422;49.938;9.124;2022-08-19T09:05:30;17.57;;;6.10;;
12715;SDS011;6422;49.938;9.124;2022-08-19T09:07:59;17.83;;;6.27;;
12715;SDS011;6422;49.938;9.124;2022-08-19T09:10:32;18.10;;;6.97;;
12715;SDS011;6422;49.938;9.124;2022-08-19T09:13:08;21.27;;;6.17;;
12715;SDS011;6422;49.938;9.124;2022-08-19T09:15:40;19.63;;;7.50;;
12715;SDS011;6422;49.938;9.124;2022-08-19T09:18:07;19.73;;;6.80;;
12715;SDS011;6422;49.938;9.124;2022-08-19T09:20:33;15.60;;;5.40;;
12715;SDS011;6422;49.938;9.124;2022-08-19T09:22:58;14.83;;;6.10;;
12715;SDS011;6422;49.938;9.124;2022-08-19T09:25:24;17.70;;;6.40;;
12715;SDS011;6422;49.938;9.124;2022-08-19T09:27:50;16.40;;;5.30;;
12715;SDS011;6422;49.938;9.124;2022-08-19T09:30:18;16.43;;;6.50;;
12715;SDS011;6422;49.938;9.124;2022-08-19T09:32:44;17.53;;;6.00;;
12715;SDS011;6422;49.938;9.124;2022-08-19T09:35:10;20.40;;;6.23;;
12715;SDS011;6422;49.938;9.124;2022-08-19T09:37:35;16.00;;;6.10;;
12715;SDS011;6422;49.938;9.124;2022-08-19T09:40:01;20.40;;;5.60;;
12715;SDS011;6422;49.938;9.124;2022-08-19T09:42:26;17.53;;;5.90;;
12715;SDS011;6422;49.938;9.124;2022-08-19T09:44:51;21.03;;;6.33;;
12715;SDS011;6422;49.938;9.124;2022-08-19T09:47:16;17.33;;;6.70;;
12715;SDS011;6422;49.938;9.124;2022-08-19T09:49:41;20.90;;;5.77;;
12715;SDS011;6422;49.938;9.124;2022-08-19T09:52:10;20.07;;;5.37;;
12715;SDS011;6422;49.938;9.124;2022-08-19T09:54:36;14.87;;;5.00;;
12715;SDS011;6422;49.938;9.124;2022-08-19T09:57:01;18.63;;;6.70;;
12715;SDS011;6422;49.938;9.124;2022-08-19T09:59:26;14.60;;;4.90;;
12715;SDS011;6422;49.938;9.124;2022-08-19T10:01:52;14.37;;;5.70;;
12715;SDS011;6422;49.938;9.124;2022-08-19T10:04:17;15.40;;;5.77;;
12715;SDS011;6422;49.938;9.124;2022-08-19T10:06:43;21.83;;;5.63;;
12715;SDS011;6422;49.938;9.124;2022-08-19T10:09:09;14.23;;;5.37;;
12715;SDS011;6422;49.938;9.124;2022-08-19T10:11:35;12.53;;;5.17;;
12715;SDS011;6422;49.938;9.124;2022-08-19T10:14:01;15.50;;;5.37;;
12715;SDS011;6422;49.938;9.124;2022-08-19T10:16:27;16.00;;;5.50;;
12715;SDS011;6422;49.938;9.124;2022-08-19T10:18:53;13.80;;;5.07;;
12715;SDS011;6422;49.938;9.124;2022-08-19T10:21:19;15.37;;;5.40;;
12715;SDS011;6422;49.938;9.124;2022-08-19T10:23:46;15.13;;;5.27;;
12715;SDS011;6422;49.938;9.124;2022-08-19T10:26:12;13.53;;;5.00;;
12715;SDS011;6422;49.938;9.124;2022-08-19T10:28:38;17.43;;;6.67;;
12715;SDS011;6422;49.938;9.124;2022-08-19T10:31:04;15.30;;;7.10;;
12715;SDS011;6422;49.938;9.124;2022-08-19T10:33:31;13.43;;;5.03;;
12715;SDS011;6422;49.938;9.124;2022-08-19T10:36:02;18.00;;;6.30;;
12715;SDS011;6422;49.938;9.124;2022-08-19T10:38:27;15.40;;;5.60;;
12715;SDS011;6422;49.938;9.124;2022-08-19T10:40:53;15.37;;;5.67;;
12715;SDS011;6422;49.938;9.124;2022-08-19T10:43:18;20.50;;;6.27;;
12715;SDS011;6422;49.938;9.124;2022-08-19T10:45:48;16.03;;;6.40;;
12715;SDS011;6422;49.938;9.124;2022-08-19T10:48:13;14.60;;;4.80;;
12715;SDS011;6422;49.938;9.124;2022-08-19T10:50:38;12.43;;;5.30;;
12715;SDS011;6422;49.938;9.124;2022-08-19T10:53:22;14.80;;;6.03;;
12715;SDS011;6422;49.938;9.124;2022-08-19T10:55:50;13.83;;;5.30;;
12715;SDS011;6422;49.938;9.124;2022-08-19T10:58:34;22.30;;;6.17;;
12715;SDS011;6422;49.938;9.124;2022-08-19T11:00:59;13.70;;;4.67;;
12715;SDS011;6422;49.938;9.124;2022-08-19T11:03:25;51.00;;;6.90;;
12715;SDS011;6422;49.938;9.124;2022-08-19T11:06:01;15.87;;;6.27;;
12715;SDS011;6422;49.938;9.124;2022-08-19T11:08:27;13.70;;;5.40;;
12715;SDS011;6422;49.938;9.124;2022-08-19T11:10:53;14.70;;;5.87;;
12715;SDS011;6422;49.938;9.124;2022-08-19T11:13:21;15.37;;;6.40;;
12715;SDS011;6422;49.938;9.124;2022-08-19T11:15:47;14.77;;;5.80;;
12715;SDS011;6422;49.938;9.124;2022-08-19T11:18:21;13.57;;;5.97;;
12715;SDS011;6422;49.938;9.124;2022-08-19T11:20:46;16.47;;;6.10;;
12715;SDS011;6422;49.938;9.124;2022-08-19T11:23:11;14.43;;;5.63;;
12715;SDS011;6422;49.938;9.124;2022-08-19T11:25:38;14.70;;;6.03;;
12715;SDS011;6422;49.938;9.124;2022-08-19T11:28:03;15.30;;;6.23;;
12715;SDS011;6422;49.938;9.124;2022-08-19T11:30:29;16.13;;;6.80;;
12715;SDS011;6422;49.938;9.124;2022-08-19T11:32:54;15.32;;;6.10;;
12715;SDS011;6422;49.938;9.124;2022-08-19T11:35:20;18.80;;;6.50;;
12715;SDS011;6422;49.938;9.124;2022-08-19T11:37:46;16.17;;;6.70;;
12715;SDS011;6422;49.938;9.124;2022-08-19T11:40:11;13.20;;;6.13;;
12715;SDS011;6422;49.938;9.124;2022-08-19T11:42:37;21.80;;;7.13;;
12715;SDS011;6422;49.938;9.124;2022-08-19T11:45:20;14.70;;;6.20;;
12715;SDS011;6422;49.938;9.124;2022-08-19T11:47:45;18.13;;;7.00;;
12715;SDS011;6422;49.938;9.124;2022-08-19T11:50:12;14.17;;;6.30;;
12715;SDS011;6422;49.938;9.124;2022-08-19T11:52:37;16.90;;;6.37;;
12715;SDS011;6422;49.938;9.124;2022-08-19T11:55:02;16.80;;;8.50;;
12715;SDS011;6422;49.938;9.124;2022-08-19T11:57:28;19.50;;;7.20;;
12715;SDS011;6422;49.938;9.124;2022-08-19T11:59:54;15.90;;;6.67;;
12715;SDS011;6422;49.938;9.124;2022-08-19T12:02:19;16.00;;;6.93;;
12715;SDS011;6422;49.938;9.124;2022-08-19T12:04:44;16.00;;;6.10;;
12715;SDS011;6422;49.938;9.124;2022-08-19T12:07:09;15.80;;;6.40;;
12715;SDS011;6422;49.938;9.124;2022-08-19T12:09:35;17.10;;;6.73;;
12715;SDS011;6422;49.938;9.124;2022-08-19T12:12:00;15.10;;;5.93;;
12715;SDS011;6422;49.938;9.124;2022-08-19T12:14:27;19.50;;;7.03;;
12715;SDS011;6422;49.938;9.124;2022-08-19T12:16:52;17.10;;;7.57;;
12715;SDS011;6422;49.938;9.124;2022-08-19T12:19:18;18.57;;;7.37;;
12715;SDS011;6422;49.938;9.124;2022-08-19T12:21:43;14.47;;;5.40;;
12715;SDS011;6422;49.938;9.124;2022-08-19T12:24:08;17.23;;;8.07;;
12715;SDS011;6422;49.938;9.124;2022-08-19T12:26:34;18.57;;;6.93;;
12715;SDS011;6422;49.938;9.124;2022-08-19T12:28:59;15.67;;;6.83;;
12715;SDS011;6422;49.938;9.124;2022-08-19T12:31:24;16.57;;;7.20;;
12715;SDS011;6422;49.938;9.124;2022-08-19T12:33:50;14.30;;;5.60;;
12715;SDS011;6422;49.938;9.124;2022-08-19T12:36:17;29.40;;;7.13;;
12715;SDS011;6422;49.938;9.124;2022-08-19T12:38:42;16.27;;;6.50;;
12715;SDS011;6422;49.938;9.124;2022-08-19T12:41:09;16.57;;;6.17;;
12715;SDS011;6422;49.938;9.124;2022-08-19T12:43:35;14.70;;;6.57;;
12715;SDS011;6422;49.938;9.124;2022-08-19T12:46:02;15.43;;;6.30;;
12715;SDS011;6422;49.938;9.124;2022-08-19T12:48:29;14.53;;;5.70;;
12715;SDS011;6422;49.938;9.124;2022-08-19T12:50:54;14.57;;;5.40;;
12715;SDS011;6422;49.938;9.124;2022-08-19T12:53:19;16.48;;;6.63;;
12715;SDS011;6422;49.938;9.124;2022-08-19T12:55:44;16.17;;;6.47;;
12715;SDS011;6422;49.938;9.124;2022-08-19T12:58:09;18.87;;;6.70;;
12715;SDS011;6422;49.938;9.124;2022-08-19T13:00:35;17.40;;;7.00;;
12715;SDS011;6422;49.938;9.124;2022-08-19T13:03:00;16.30;;;6.72;;
12715;SDS011;6422;49.938;9.124;2022-08-19T13:05:27;16.50;;;6.83;;
12715;SDS011;6422;49.938;9.124;2022-08-19T13:07:54;17.47;;;6.30;;
12715;SDS011;6422;49.938;9.124;2022-08-19T13:10:23;18.13;;;6.90;;
12715;SDS011;6422;49.938;9.124;2022-08-19T13:12:50;34.53;;;6.90;;
12715;SDS011;6422;49.938;9.124;2022-08-19T13:15:16;16.93;;;6.87;;
12715;SDS011;6422;49.938;9.124;2022-08-19T13:17:44;14.40;;;6.37;;
12715;SDS011;6422;49.938;9.124;2022-08-19T13:20:10;18.73;;;6.17;;
12715;SDS011;6422;49.938;9.124;2022-08-19T13:22:36;16.20;;;6.70;;
12715;SDS011;6422;49.938;9.124;2022-08-19T13:25:01;15.37;;;7.80;;
12715;SDS011;6422;49.938;9.124;2022-08-19T13:27:27;14.33;;;7.53;;
12715;SDS011;6422;49.938;9.124;2022-08-19T13:29:52;16.70;;;7.70;;
12715;SDS011;6422;49.938;9.124;2022-08-19T13:32:36;19.65;;;10.90;;
12715;SDS011;6422;49.938;9.124;2022-08-19T13:35:20;18.50;;;7.93;;
12715;SDS011;6422;49.938;9.124;2022-08-19T13:37:45;14.23;;;5.90;;
12715;SDS011;6422;49.938;9.124;2022-08-19T13:40:15;20.10;;;6.90;;
12715;SDS011;6422;49.938;9.124;2022-08-19T13:42:43;14.90;;;6.57;;
12715;SDS011;6422;49.938;9.124;2022-08-19T13:45:11;18.97;;;7.33;;
12715;SDS011;6422;49.938;9.124;2022-08-19T13:47:36;15.67;;;7.27;;
12715;SDS011;6422;49.938;9.124;2022-08-19T13:50:07;16.77;;;6.00;;
12715;SDS011;6422;49.938;9.124;2022-08-19T13:52:32;15.33;;;6.20;;
12715;SDS011;6422;49.938;9.124;2022-08-19T13:54:58;43.75;;;7.15;;
12715;SDS011;6422;49.938;9.124;2022-08-19T13:57:23;15.93;;;7.10;;
12715;SDS011;6422;49.938;9.124;2022-08-19T13:59:48;17.30;;;7.03;;
12715;SDS011;6422;49.938;9.124;2022-08-19T14:02:13;14.60;;;6.40;;
12715;SDS011;6422;49.938;9.124;2022-08-19T14:04:39;16.30;;;6.43;;
12715;SDS011;6422;49.938;9.124;2022-08-19T14:07:04;16.87;;;6.33;;
12715;SDS011;6422;49.938;9.124;2022-08-19T14:09:29;14.02;;;6.43;;
12715;SDS011;6422;49.938;9.124;2022-08-19T14:11:55;17.07;;;6.40;;
12715;SDS011;6422;49.938;9.124;2022-08-19T14:14:20;14.73;;;7.00;;
12715;SDS011;6422;49.938;9.124;2022-08-19T14:16:45;15.80;;;6.60;;
12715;SDS011;6422;49.938;9.124;2022-08-19T14:19:10;15.73;;;6.57;;
12715;SDS011;6422;49.938;9.124;2022-08-19T14:21:35;16.40;;;7.23;;
12715;SDS011;6422;49.938;9.124;2022-08-19T14:24:01;14.43;;;5.07;;
12715;SDS011;6422;49.938;9.124;2022-08-19T14:26:26;15.87;;;5.87;;
12715;SDS011;6422;49.938;9.124;2022-08-19T14:28:51;15.27;;;6.20;;
12715;SDS011;6422;49.938;9.124;2022-08-19T14:31:17;17.97;;;7.30;;
12715;SDS011;6422;49.938;9.124;2022-08-19T14:33:44;26.37;;;6.43;;
12715;SDS011;6422;49.938;9.124;2022-08-19T14:36:10;17.63;;;7.47;;
12715;SDS011;6422;49.938;9.124;2022-08-19T14:38:35;18.17;;;7.80;;
12715;SDS011;6422;49.938;9.124;2022-08-19T14:41:12;16.40;;;6.90;;
12715;SDS011;6422;49.938;9.124;2022-08-19T14:43:38;16.53;;;6.50;;
12715;SDS011;6422;49.938;9.124;2022-08-19T14:46:04;16.23;;;5.83;;
12715;SDS011;6422;49.938;9.124;2022-08-19T14:48:29;16.90;;;6.00;;
12715;SDS011;6422;49.938;9.124;2022-08-19T14:50:54;18.03;;;6.27;;